Nederlandse vliegveldverwachtingen (TAF)

Luchtvaartmeteorologische informatie voor operationeel gebruik en vluchtvoorbereiding is beschikbaar op www.luchtvaartmeteo.nl.

ZCZC
FC090100 EHGR     GILZE-RIJEN/GILZE-RIJEN   NLD   14 m.
TAF EHGR 090100Z NIL=

ZCZC
FC090100 EHLW     LEEUWARDEN/LEEUWARDEN   NLD   1 m.
TAF EHLW 090100Z NIL=

ZCZC
FC090100 EHWO     WOENSDRECHT/WOENSDRECHT   NLD   19 m.
TAF EHWO 090100Z NIL=

ZCZC
FT092300 EHAM     AMSTERDAM/SCHIPHOL   NLD   -3 m.
TAF EHAM 092309Z 1000/1106 31015KT 9999 SCT030
    PROB40 TEMPO 1000/1015 32022G34KT 6000 SHRA SCT020CB
    SCT030
    PROB30 TEMPO 1015/1024 7000 -SHRA FEW025TCU
    BECMG 1018/1021 30010KT=

ZCZC
FT092300 EHBK     MAASTRICHT/MAASTRICHT-AACHEN   NLD   114 m.
TAF EHBK 092308Z 1000/1106 27009KT 9999 SCT035
    PROB40 TEMPO 1000/1018 30013G23KT 6000 SHRA SCT020CB
    BKN030
    BECMG 1012/1015 30013KT
    BECMG 1018/1021 27007KT=

ZCZC
FT092300 EHGG     GRONINGEN/EELDE   NLD   5 m.
TAF EHGG 092308Z 1000/1106 30014KT 9999 SCT040
    PROB40 TEMPO 1000/1018 31017G27KT 6000 SHRA SHRAGS SCT020CB
    BKN030
    PROB30 TEMPO 1018/1106 7000 -SHRA FEW025TCU BKN040=

ZCZC
FT092300 EHRD     ROTTERDAM/THE HAGUE AIRPORT   NLD   -5 m.
TAF EHRD 092309Z 1000/1106 31015KT 9999 SCT030
    PROB40 TEMPO 1000/1015 32022G34KT 6000 SHRA SCT020CB
    SCT030
    PROB30 TEMPO 1015/1024 7000 -SHRA FEW025TCU
    BECMG 1018/1021 30010KT=

ZCZC
FT092300 EHEH     EINDHOVEN/EINDHOVEN   NLD   22 m.
TAF EHEH 092129Z 1000/1106 27009KT 9999 SCT025
    TEMPO 1000/1018 29012G22KT -SHRA SCT018CB BKN025
    PROB30 TEMPO 1012/1018 31013KT
    BECMG 1017/1019 27007KT=

ZCZC
FC100100 EHKD RRA DE KOOY/DE KOOY   NLD   1 m.
TAF EHKD 100035Z 1002/1014 31015G25KT 9999 SCT022 SCT030
    TEMPO 1002/1004 32018G35KT
    TEMPO 1002/1014 FEW014 SCT018CB BKN020=

ZCZC
FC100100 EHVK RRB VOLKEL/VOLKEL   NLD   21 m.
TAF EHVK 100034Z 1002/1014 27010KT 9999 SCT025
    TEMPO 1000/1014 29012G22KT -SHRA SCT018CB BKN025=

10/12/2018 02.15 uur LT